sensor_id;sensor_type;location;lat;lon;timestamp;pressure;altitude;pressure_sealevel;temperature;humidity
18275;BME280;19470;49.322;7.218;2023-03-19T00:00:09;98378.72;;;16.31;87.44
18275;BME280;19470;49.322;7.218;2023-03-19T00:02:36;98381.00;;;16.62;84.27
18275;BME280;19470;49.322;7.218;2023-03-19T00:05:03;98387.81;;;16.30;84.92
18275;BME280;19470;49.322;7.218;2023-03-19T00:07:30;98385.97;;;16.50;83.56
18275;BME280;19470;49.322;7.218;2023-03-19T00:09:57;98380.13;;;16.05;84.94
18275;BME280;19470;49.322;7.218;2023-03-19T00:12:23;98387.28;;;15.86;88.32
18275;BME280;19470;49.322;7.218;2023-03-19T00:14:51;98394.38;;;15.66;90.49
18275;BME280;19470;49.322;7.218;2023-03-19T00:17:17;98391.22;;;15.88;88.71
18275;BME280;19470;49.322;7.218;2023-03-19T00:19:44;98391.84;;;16.04;87.02
18275;BME280;19470;49.322;7.218;2023-03-19T00:22:14;98389.19;;;16.04;87.64
18275;BME280;19470;49.322;7.218;2023-03-19T00:24:41;98385.56;;;16.19;84.59
18275;BME280;19470;49.322;7.218;2023-03-19T00:27:07;98384.88;;;16.08;87.26
18275;BME280;19470;49.322;7.218;2023-03-19T00:29:34;98384.25;;;15.63;90.43
18275;BME280;19470;49.322;7.218;2023-03-19T00:32:02;98384.06;;;15.83;89.55
18275;BME280;19470;49.322;7.218;2023-03-19T00:34:28;98386.03;;;15.44;94.12
18275;BME280;19470;49.322;7.218;2023-03-19T00:36:55;98383.25;;;15.54;92.12
18275;BME280;19470;49.322;7.218;2023-03-19T00:39:21;98386.31;;;15.71;92.02
18275;BME280;19470;49.322;7.218;2023-03-19T00:41:48;98387.06;;;16.49;87.40
18275;BME280;19470;49.322;7.218;2023-03-19T00:44:15;98391.81;;;16.33;87.99
18275;BME280;19470;49.322;7.218;2023-03-19T00:47:01;98391.72;;;15.61;90.92
18275;BME280;19470;49.322;7.218;2023-03-19T00:49:28;98391.38;;;15.44;93.70
18275;BME280;19470;49.322;7.218;2023-03-19T00:51:55;98393.41;;;15.52;92.92
18275;BME280;19470;49.322;7.218;2023-03-19T00:54:21;98395.00;;;15.19;95.08
18275;BME280;19470;49.322;7.218;2023-03-19T00:56:48;98392.63;;;15.17;95.63
18275;BME280;19470;49.322;7.218;2023-03-19T00:59:14;98396.66;;;15.09;94.70
18275;BME280;19470;49.322;7.218;2023-03-19T01:01:41;98397.28;;;15.01;95.96
18275;BME280;19470;49.322;7.218;2023-03-19T01:04:09;98403.66;;;15.00;94.91
18275;BME280;19470;49.322;7.218;2023-03-19T01:06:37;98408.88;;;14.76;96.77
18275;BME280;19470;49.322;7.218;2023-03-19T01:09:03;98413.34;;;14.86;96.85
18275;BME280;19470;49.322;7.218;2023-03-19T01:11:30;98416.88;;;14.76;96.95
18275;BME280;19470;49.322;7.218;2023-03-19T01:13:57;98405.72;;;14.74;96.77
18275;BME280;19470;49.322;7.218;2023-03-19T01:16:23;98411.84;;;14.70;96.76
18275;BME280;19470;49.322;7.218;2023-03-19T01:18:49;98408.94;;;14.66;96.24
18275;BME280;19470;49.322;7.218;2023-03-19T01:21:18;98405.00;;;14.43;97.94
18275;BME280;19470;49.322;7.218;2023-03-19T01:23:44;98415.22;;;14.26;99.51
18275;BME280;19470;49.322;7.218;2023-03-19T01:26:11;98407.97;;;14.42;97.80
18275;BME280;19470;49.322;7.218;2023-03-19T01:28:37;98414.69;;;14.19;98.70
18275;BME280;19470;49.322;7.218;2023-03-19T01:31:05;98408.97;;;14.61;95.20
18275;BME280;19470;49.322;7.218;2023-03-19T01:33:33;98398.44;;;14.20;97.40
18275;BME280;19470;49.322;7.218;2023-03-19T01:36:00;98404.34;;;14.12;99.04
18275;BME280;19470;49.322;7.218;2023-03-19T01:38:30;98396.91;;;14.04;97.51
18275;BME280;19470;49.322;7.218;2023-03-19T01:40:57;98401.69;;;13.97;97.84
18275;BME280;19470;49.322;7.218;2023-03-19T01:43:24;98404.94;;;13.84;99.35
18275;BME280;19470;49.322;7.218;2023-03-19T01:45:54;98407.84;;;14.02;98.00
18275;BME280;19470;49.322;7.218;2023-03-19T01:48:26;98400.63;;;14.13;96.92
18275;BME280;19470;49.322;7.218;2023-03-19T01:50:55;98403.50;;;14.22;95.38
18275;BME280;19470;49.322;7.218;2023-03-19T01:53:25;98411.31;;;13.77;97.78
18275;BME280;19470;49.322;7.218;2023-03-19T01:55:57;98411.78;;;14.10;95.30
18275;BME280;19470;49.322;7.218;2023-03-19T01:58:25;98415.59;;;13.73;97.34
18275;BME280;19470;49.322;7.218;2023-03-19T02:00:52;98415.59;;;13.89;97.20
18275;BME280;19470;49.322;7.218;2023-03-19T02:03:18;98424.66;;;13.57;97.91
18275;BME280;19470;49.322;7.218;2023-03-19T02:05:47;98412.59;;;12.78;100.00
18275;BME280;19470;49.322;7.218;2023-03-19T02:08:17;98419.34;;;13.37;100.00
18275;BME280;19470;49.322;7.218;2023-03-19T02:10:45;98424.91;;;13.35;100.00
18275;BME280;19470;49.322;7.218;2023-03-19T02:13:14;98429.72;;;13.28;100.00
18275;BME280;19470;49.322;7.218;2023-03-19T02:15:41;98426.25;;;13.27;100.00
18275;BME280;19470;49.322;7.218;2023-03-19T02:18:07;98423.50;;;12.87;100.00
18275;BME280;19470;49.322;7.218;2023-03-19T02:20:39;98424.56;;;12.81;100.00
18275;BME280;19470;49.322;7.218;2023-03-19T02:23:14;98425.94;;;13.09;100.00
18275;BME280;19470;49.322;7.218;2023-03-19T02:25:59;98429.09;;;12.95;100.00
18275;BME280;19470;49.322;7.218;2023-03-19T02:28:27;98425.94;;;13.19;99.73
18275;BME280;19470;49.322;7.218;2023-03-19T02:30:54;98431.03;;;13.25;99.75
18275;BME280;19470;49.322;7.218;2023-03-19T02:33:21;98425.94;;;13.19;99.79
18275;BME280;19470;49.322;7.218;2023-03-19T02:35:49;98422.72;;;12.96;99.97
18275;BME280;19470;49.322;7.218;2023-03-19T02:38:17;98425.66;;;13.10;99.72
18275;BME280;19470;49.322;7.218;2023-03-19T02:40:48;98414.75;;;13.17;99.09
18275;BME280;19470;49.322;7.218;2023-03-19T02:43:19;98430.50;;;13.23;98.23
18275;BME280;19470;49.322;7.218;2023-03-19T02:45:46;98428.84;;;13.12;99.22
18275;BME280;19470;49.322;7.218;2023-03-19T02:48:13;98428.94;;;13.38;97.66
18275;BME280;19470;49.322;7.218;2023-03-19T02:50:39;98422.53;;;13.59;94.76
18275;BME280;19470;49.322;7.218;2023-03-19T02:53:06;98436.09;;;13.47;96.63
18275;BME280;19470;49.322;7.218;2023-03-19T02:55:32;98437.97;;;13.52;94.60
18275;BME280;19470;49.322;7.218;2023-03-19T02:57:59;98438.44;;;13.08;98.71
18275;BME280;19470;49.322;7.218;2023-03-19T03:00:27;98427.19;;;12.70;100.00
18275;BME280;19470;49.322;7.218;2023-03-19T03:02:54;98423.03;;;13.81;95.41
18275;BME280;19470;49.322;7.218;2023-03-19T03:05:22;98426.34;;;14.38;89.63
18275;BME280;19470;49.322;7.218;2023-03-19T03:07:49;98430.50;;;13.54;93.85
18275;BME280;19470;49.322;7.218;2023-03-19T03:10:16;98431.84;;;13.41;96.35
18275;BME280;19470;49.322;7.218;2023-03-19T03:12:43;98425.69;;;13.92;94.09
18275;BME280;19470;49.322;7.218;2023-03-19T03:15:11;98431.56;;;13.58;95.50
18275;BME280;19470;49.322;7.218;2023-03-19T03:17:41;98430.75;;;13.93;94.31
18275;BME280;19470;49.322;7.218;2023-03-19T03:20:08;98435.53;;;13.86;93.36
18275;BME280;19470;49.322;7.218;2023-03-19T03:22:35;98438.47;;;13.59;95.46
18275;BME280;19470;49.322;7.218;2023-03-19T03:25:02;98439.84;;;13.36;97.09
18275;BME280;19470;49.322;7.218;2023-03-19T03:27:29;98440.34;;;13.28;98.37
18275;BME280;19470;49.322;7.218;2023-03-19T03:29:55;98442.75;;;13.50;98.05
18275;BME280;19470;49.322;7.218;2023-03-19T03:32:22;98447.44;;;12.97;100.00
18275;BME280;19470;49.322;7.218;2023-03-19T03:34:50;98447.00;;;13.30;100.00
18275;BME280;19470;49.322;7.218;2023-03-19T03:37:16;98441.16;;;13.39;98.92
18275;BME280;19470;49.322;7.218;2023-03-19T03:39:44;98443.28;;;13.67;97.66
18275;BME280;19470;49.322;7.218;2023-03-19T03:42:10;98443.28;;;13.32;98.64
18275;BME280;19470;49.322;7.218;2023-03-19T03:44:37;98443.81;;;13.28;100.00
18275;BME280;19470;49.322;7.218;2023-03-19T03:47:04;98443.50;;;13.96;94.25
18275;BME280;19470;49.322;7.218;2023-03-19T03:49:30;98444.84;;;13.94;95.03
18275;BME280;19470;49.322;7.218;2023-03-19T03:51:58;98456.59;;;13.67;96.38
18275;BME280;19470;49.322;7.218;2023-03-19T03:54:25;98466.44;;;13.67;97.08
18275;BME280;19470;49.322;7.218;2023-03-19T03:56:51;98457.66;;;13.46;97.94
18275;BME280;19470;49.322;7.218;2023-03-19T03:59:18;98453.91;;;13.93;94.94
18275;BME280;19470;49.322;7.218;2023-03-19T04:01:44;98464.06;;;13.55;97.75
18275;BME280;19470;49.322;7.218;2023-03-19T04:04:11;98468.03;;;13.42;98.75
18275;BME280;19470;49.322;7.218;2023-03-19T04:06:38;98461.38;;;13.60;97.99
18275;BME280;19470;49.322;7.218;2023-03-19T04:09:06;98453.13;;;13.36;100.00
18275;BME280;19470;49.322;7.218;2023-03-19T04:11:33;98455.25;;;13.70;97.49
18275;BME280;19470;49.322;7.218;2023-03-19T04:14:00;98459.78;;;13.59;98.22
18275;BME280;19470;49.322;7.218;2023-03-19T04:16:27;98454.72;;;13.88;96.83
18275;BME280;19470;49.322;7.218;2023-03-19T04:18:54;98454.44;;;13.95;96.84
18275;BME280;19470;49.322;7.218;2023-03-19T04:21:20;98460.28;;;13.36;100.00
18275;BME280;19470;49.322;7.218;2023-03-19T04:23:47;98465.88;;;13.24;100.00
18275;BME280;19470;49.322;7.218;2023-03-19T04:26:15;98465.56;;;13.15;100.00
18275;BME280;19470;49.322;7.218;2023-03-19T04:28:41;98458.16;;;13.73;98.90
18275;BME280;19470;49.322;7.218;2023-03-19T04:31:08;98455.53;;;13.84;98.41
18275;BME280;19470;49.322;7.218;2023-03-19T04:33:35;98449.91;;;13.90;98.53
18275;BME280;19470;49.322;7.218;2023-03-19T04:36:03;98446.97;;;13.97;97.57
18275;BME280;19470;49.322;7.218;2023-03-19T04:38:29;98448.56;;;13.98;97.53
18275;BME280;19470;49.322;7.218;2023-03-19T04:40:56;98450.13;;;14.14;96.68
18275;BME280;19470;49.322;7.218;2023-03-19T04:43:24;98456.81;;;14.01;96.67
18275;BME280;19470;49.322;7.218;2023-03-19T04:45:51;98455.19;;;14.05;96.80
18275;BME280;19470;49.322;7.218;2023-03-19T04:48:18;98454.69;;;14.03;97.23
18275;BME280;19470;49.322;7.218;2023-03-19T04:50:45;98456.03;;;13.80;98.87
18275;BME280;19470;49.322;7.218;2023-03-19T04:53:11;98452.00;;;14.09;97.27
18275;BME280;19470;49.322;7.218;2023-03-19T04:55:38;98458.38;;;14.98;91.44
18275;BME280;19470;49.322;7.218;2023-03-19T04:58:05;98449.28;;;14.99;90.16
18275;BME280;19470;49.322;7.218;2023-03-19T05:00:34;98460.22;;;14.32;94.18
18275;BME280;19470;49.322;7.218;2023-03-19T05:03:01;98460.03;;;13.93;95.85
18275;BME280;19470;49.322;7.218;2023-03-19T05:05:27;98459.78;;;13.59;97.20
18275;BME280;19470;49.322;7.218;2023-03-19T05:07:54;98460.03;;;13.98;96.10
18275;BME280;19470;49.322;7.218;2023-03-19T05:10:21;98462.22;;;14.71;91.05
18275;BME280;19470;49.322;7.218;2023-03-19T05:12:48;98461.09;;;13.97;94.07
18275;BME280;19470;49.322;7.218;2023-03-19T05:15:14;98461.38;;;13.86;94.85
18275;BME280;19470;49.322;7.218;2023-03-19T05:17:42;98469.88;;;13.72;97.06
18275;BME280;19470;49.322;7.218;2023-03-19T05:20:10;98477.88;;;13.47;98.08
18275;BME280;19470;49.322;7.218;2023-03-19T05:22:36;98475.84;;;12.86;100.00
18275;BME280;19470;49.322;7.218;2023-03-19T05:25:03;98480.53;;;13.62;98.85
18275;BME280;19470;49.322;7.218;2023-03-19T05:27:31;98479.69;;;14.18;94.31
18275;BME280;19470;49.322;7.218;2023-03-19T05:29:57;98469.63;;;13.48;99.59
18275;BME280;19470;49.322;7.218;2023-03-19T05:32:24;98480.28;;;13.84;98.46
18275;BME280;19470;49.322;7.218;2023-03-19T05:34:52;98477.06;;;14.07;96.18
18275;BME280;19470;49.322;7.218;2023-03-19T05:37:18;98474.91;;;14.10;95.36
18275;BME280;19470;49.322;7.218;2023-03-19T05:39:45;98471.97;;;14.06;96.18
18275;BME280;19470;49.322;7.218;2023-03-19T05:42:12;98489.56;;;13.92;97.15
18275;BME280;19470;49.322;7.218;2023-03-19T05:44:39;98482.13;;;13.84;98.74
18275;BME280;19470;49.322;7.218;2023-03-19T05:47:06;98482.63;;;13.35;100.00
18275;BME280;19470;49.322;7.218;2023-03-19T05:49:33;98485.78;;;14.23;97.11
18275;BME280;19470;49.322;7.218;2023-03-19T05:52:01;98489.03;;;14.05;96.92
18275;BME280;19470;49.322;7.218;2023-03-19T05:54:27;98492.75;;;13.38;100.00
18275;BME280;19470;49.322;7.218;2023-03-19T05:56:54;98493.84;;;13.57;100.00
18275;BME280;19470;49.322;7.218;2023-03-19T05:59:20;98500.75;;;13.43;100.00
18275;BME280;19470;49.322;7.218;2023-03-19T06:01:47;98505.28;;;13.93;99.71
18275;BME280;19470;49.322;7.218;2023-03-19T06:04:13;98500.97;;;14.33;95.36
18275;BME280;19470;49.322;7.218;2023-03-19T06:06:40;98499.75;;;14.85;92.13
18275;BME280;19470;49.322;7.218;2023-03-19T06:09:08;98502.88;;;14.12;97.01
18275;BME280;19470;49.322;7.218;2023-03-19T06:11:34;98506.06;;;13.58;100.00
18275;BME280;19470;49.322;7.218;2023-03-19T06:14:03;98510.34;;;13.95;99.73
18275;BME280;19470;49.322;7.218;2023-03-19T06:16:30;98518.28;;;13.28;100.00
18275;BME280;19470;49.322;7.218;2023-03-19T06:18:56;98513.00;;;13.79;100.00
18275;BME280;19470;49.322;7.218;2023-03-19T06:21:23;98499.69;;;13.90;99.07
18275;BME280;19470;49.322;7.218;2023-03-19T06:23:53;98508.44;;;14.26;95.28
18275;BME280;19470;49.322;7.218;2023-03-19T06:26:22;98494.91;;;14.07;97.46
18275;BME280;19470;49.322;7.218;2023-03-19T06:28:48;98507.91;;;14.24;96.85
18275;BME280;19470;49.322;7.218;2023-03-19T06:31:15;98503.88;;;14.52;95.37
18275;BME280;19470;49.322;7.218;2023-03-19T06:33:42;98501.81;;;14.13;97.01
18275;BME280;19470;49.322;7.218;2023-03-19T06:36:09;98499.91;;;14.19;96.39
18275;BME280;19470;49.322;7.218;2023-03-19T06:38:57;98506.59;;;14.06;97.60
18275;BME280;19470;49.322;7.218;2023-03-19T06:41:25;98503.09;;;14.31;95.25
18275;BME280;19470;49.322;7.218;2023-03-19T06:43:52;98506.63;;;13.55;100.00
18275;BME280;19470;49.322;7.218;2023-03-19T06:46:18;98502.16;;;14.81;94.87
18275;BME280;19470;49.322;7.218;2023-03-19T06:48:45;98496.81;;;14.81;93.45
18275;BME280;19470;49.322;7.218;2023-03-19T06:51:11;98507.06;;;14.39;96.97
18275;BME280;19470;49.322;7.218;2023-03-19T06:53:38;98504.69;;;14.32;97.96
18275;BME280;19470;49.322;7.218;2023-03-19T06:56:05;98518.78;;;14.48;95.37
18275;BME280;19470;49.322;7.218;2023-03-19T06:58:33;98520.31;;;14.74;94.70
18275;BME280;19470;49.322;7.218;2023-03-19T07:01:00;98518.97;;;14.82;92.93
18275;BME280;19470;49.322;7.218;2023-03-19T07:03:27;98516.03;;;14.83;92.68
18275;BME280;19470;49.322;7.218;2023-03-19T07:05:53;98516.25;;;15.42;90.33
18275;BME280;19470;49.322;7.218;2023-03-19T07:08:20;98510.50;;;15.24;91.02
18275;BME280;19470;49.322;7.218;2023-03-19T07:10:46;98517.13;;;15.71;88.69
18275;BME280;19470;49.322;7.218;2023-03-19T07:13:13;98517.88;;;16.11;86.88
18275;BME280;19470;49.322;7.218;2023-03-19T07:15:41;98522.03;;;15.93;86.66
18275;BME280;19470;49.322;7.218;2023-03-19T07:18:07;98517.97;;;15.22;92.29
18275;BME280;19470;49.322;7.218;2023-03-19T07:20:34;98529.22;;;15.98;87.26
18275;BME280;19470;49.322;7.218;2023-03-19T07:23:00;98525.31;;;15.41;90.31
18275;BME280;19470;49.322;7.218;2023-03-19T07:25:27;98519.75;;;14.88;94.54
18275;BME280;19470;49.322;7.218;2023-03-19T07:27:54;98522.13;;;16.12;87.16
18275;BME280;19470;49.322;7.218;2023-03-19T07:30:20;98533.16;;;16.34;86.49
18275;BME280;19470;49.322;7.218;2023-03-19T07:32:49;98527.72;;;15.87;89.27
18275;BME280;19470;49.322;7.218;2023-03-19T07:35:15;98531.13;;;15.48;91.81
18275;BME280;19470;49.322;7.218;2023-03-19T07:37:42;98529.94;;;15.74;90.21
18275;BME280;19470;49.322;7.218;2023-03-19T07:40:09;98533.34;;;16.14;88.30
18275;BME280;19470;49.322;7.218;2023-03-19T07:42:36;98541.91;;;16.11;88.35
18275;BME280;19470;49.322;7.218;2023-03-19T07:45:03;98544.19;;;15.94;89.86
18275;BME280;19470;49.322;7.218;2023-03-19T07:47:30;98540.78;;;15.88;90.06
18275;BME280;19470;49.322;7.218;2023-03-19T07:49:58;98537.38;;;16.65;84.67
18275;BME280;19470;49.322;7.218;2023-03-19T07:52:25;98539.53;;;16.39;85.96
18275;BME280;19470;49.322;7.218;2023-03-19T07:54:52;98542.28;;;16.57;85.88
18275;BME280;19470;49.322;7.218;2023-03-19T07:57:18;98544.41;;;16.84;80.75
18275;BME280;19470;49.322;7.218;2023-03-19T07:59:45;98546.94;;;16.47;85.86
18275;BME280;19470;49.322;7.218;2023-03-19T08:02:12;98539.69;;;16.76;77.12
18275;BME280;19470;49.322;7.218;2023-03-19T08:04:38;98541.09;;;16.93;79.87
18275;BME280;19470;49.322;7.218;2023-03-19T08:07:08;98533.75;;;16.79;74.61
18275;BME280;19470;49.322;7.218;2023-03-19T08:09:37;98542.88;;;17.21;73.43
18275;BME280;19470;49.322;7.218;2023-03-19T08:12:04;98541.09;;;18.06;69.55
18275;BME280;19470;49.322;7.218;2023-03-19T08:14:30;98534.81;;;17.97;66.88
18275;BME280;19470;49.322;7.218;2023-03-19T08:16:57;98530.28;;;18.11;67.74
18275;BME280;19470;49.322;7.218;2023-03-19T08:19:23;98531.44;;;18.37;65.36
18275;BME280;19470;49.322;7.218;2023-03-19T08:21:50;98533.94;;;18.48;65.97
18275;BME280;19470;49.322;7.218;2023-03-19T08:24:18;98533.38;;;18.78;62.32
18275;BME280;19470;49.322;7.218;2023-03-19T08:26:44;98536.91;;;18.46;64.20
18275;BME280;19470;49.322;7.218;2023-03-19T08:29:11;98528.03;;;18.78;63.31
18275;BME280;19470;49.322;7.218;2023-03-19T08:31:38;98530.28;;;17.78;64.70
18275;BME280;19470;49.322;7.218;2023-03-19T08:34:04;98535.31;;;17.99;63.88
18275;BME280;19470;49.322;7.218;2023-03-19T08:36:31;98547.09;;;17.84;63.67
18275;BME280;19470;49.322;7.218;2023-03-19T08:38:57;98537.69;;;18.47;61.69
18275;BME280;19470;49.322;7.218;2023-03-19T08:41:26;98535.06;;;18.14;62.51
18275;BME280;19470;49.322;7.218;2023-03-19T08:43:52;98536.31;;;18.35;62.81
18275;BME280;19470;49.322;7.218;2023-03-19T08:46:19;98542.84;;;17.97;63.90
18275;BME280;19470;49.322;7.218;2023-03-19T08:48:45;98545.31;;;18.39;62.07
18275;BME280;19470;49.322;7.218;2023-03-19T08:51:12;98548.38;;;18.19;63.93
18275;BME280;19470;49.322;7.218;2023-03-19T08:53:38;98572.00;;;17.84;63.18
18275;BME280;19470;49.322;7.218;2023-03-19T08:56:06;98571.63;;;17.10;68.03
18275;BME280;19470;49.322;7.218;2023-03-19T08:58:34;98580.25;;;17.26;67.04
18275;BME280;19470;49.322;7.218;2023-03-19T09:01:01;98573.84;;;16.84;69.69
18275;BME280;19470;49.322;7.218;2023-03-19T09:03:28;98568.53;;;16.50;71.46
18275;BME280;19470;49.322;7.218;2023-03-19T09:05:57;98562.41;;;16.98;70.03
18275;BME280;19470;49.322;7.218;2023-03-19T09:08:23;64157.94;;;-145.87;100.00
18275;BME280;19470;49.322;7.218;2023-03-19T09:10:50;64157.94;;;-145.87;100.00
18275;BME280;19470;49.322;7.218;2023-03-19T09:13:16;64157.94;;;-145.87;100.00
18275;BME280;19470;49.322;7.218;2023-03-19T09:15:44;64157.94;;;-145.87;100.00
18275;BME280;19470;49.322;7.218;2023-03-19T09:18:11;64157.94;;;-145.87;100.00
18275;BME280;19470;49.322;7.218;2023-03-19T09:20:37;64157.94;;;-145.87;100.00
18275;BME280;19470;49.322;7.218;2023-03-19T09:23:04;64157.94;;;-145.87;100.00
18275;BME280;19470;49.322;7.218;2023-03-19T09:25:31;64157.94;;;-145.87;100.00
18275;BME280;19470;49.322;7.218;2023-03-19T09:27:57;64157.94;;;-145.87;100.00
18275;BME280;19470;49.322;7.218;2023-03-19T09:30:24;64157.94;;;-145.87;100.00
18275;BME280;19470;49.322;7.218;2023-03-19T09:32:52;64157.94;;;-145.87;100.00
18275;BME280;19470;49.322;7.218;2023-03-19T09:35:18;75263.91;;;-145.87;70.03
18275;BME280;19470;49.322;7.218;2023-03-19T09:37:45;98562.41;;;16.98;70.03
18275;BME280;19470;49.322;7.218;2023-03-19T09:40:19;98562.41;;;16.98;70.03
18275;BME280;19470;49.322;7.218;2023-03-19T09:42:57;98584.03;;;19.21;75.77
18275;BME280;19470;49.322;7.218;2023-03-19T09:45:27;98586.63;;;19.26;76.84
18275;BME280;19470;49.322;7.218;2023-03-19T09:47:58;98592.78;;;17.93;81.19
18275;BME280;19470;49.322;7.218;2023-03-19T09:50:28;98608.97;;;17.82;78.70
18275;BME280;19470;49.322;7.218;2023-03-19T09:53:03;98605.97;;;17.27;83.57
18275;BME280;19470;49.322;7.218;2023-03-19T09:55:37;98605.13;;;17.08;83.87
18275;BME280;19470;49.322;7.218;2023-03-19T09:58:11;98608.53;;;16.90;83.75
18275;BME280;19470;49.322;7.218;2023-03-19T10:00:41;98602.81;;;17.82;80.76
18275;BME280;19470;49.322;7.218;2023-03-19T10:03:26;98604.78;;;17.76;79.28
18275;BME280;19470;49.322;7.218;2023-03-19T10:06:03;98606.28;;;17.82;78.74
18275;BME280;19470;49.322;7.218;2023-03-19T10:08:45;98610.28;;;16.12;88.57
18275;BME280;19470;49.322;7.218;2023-03-19T10:11:25;98612.25;;;17.18;84.32
18275;BME280;19470;49.322;7.218;2023-03-19T10:14:02;98618.59;;;16.74;86.14
18275;BME280;19470;49.322;7.218;2023-03-19T10:19:44;98623.47;;;17.38;84.39
18275;BME280;19470;49.322;7.218;2023-03-19T10:22:15;98620.13;;;17.28;84.34
18275;BME280;19470;49.322;7.218;2023-03-19T10:24:45;98626.56;;;16.16;93.04
18275;BME280;19470;49.322;7.218;2023-03-19T10:27:14;98625.81;;;16.73;90.63
18275;BME280;19470;49.322;7.218;2023-03-19T10:29:41;98635.31;;;16.55;91.59
18275;BME280;19470;49.322;7.218;2023-03-19T10:32:16;98630.75;;;16.27;93.86
18275;BME280;19470;49.322;7.218;2023-03-19T10:34:46;98622.00;;;17.70;88.09
18275;BME280;19470;49.322;7.218;2023-03-19T10:37:15;98625.25;;;17.67;86.79
18275;BME280;19470;49.322;7.218;2023-03-19T10:39:45;98621.75;;;17.05;90.28
18275;BME280;19470;49.322;7.218;2023-03-19T10:42:24;98624.22;;;17.20;89.14
18275;BME280;19470;49.322;7.218;2023-03-19T10:44:58;98631.81;;;17.56;88.95
18275;BME280;19470;49.322;7.218;2023-03-19T10:47:26;98634.44;;;16.94;91.89
18275;BME280;19470;49.322;7.218;2023-03-19T10:49:56;98624.78;;;17.17;89.17
18275;BME280;19470;49.322;7.218;2023-03-19T10:52:26;98632.50;;;17.24;90.24
18275;BME280;19470;49.322;7.218;2023-03-19T10:54:55;98638.91;;;17.47;88.27
18275;BME280;19470;49.322;7.218;2023-03-19T10:57:25;98640.34;;;17.58;87.93
18275;BME280;19470;49.322;7.218;2023-03-19T10:59:52;98644.72;;;17.73;89.08
18275;BME280;19470;49.322;7.218;2023-03-19T11:02:21;98645.41;;;16.93;91.45
18275;BME280;19470;49.322;7.218;2023-03-19T11:04:48;98648.22;;;16.14;93.86
18275;BME280;19470;49.322;7.218;2023-03-19T11:07:19;98641.09;;;16.39;94.05
18275;BME280;19470;49.322;7.218;2023-03-19T11:09:47;98650.13;;;16.43;92.60
18275;BME280;19470;49.322;7.218;2023-03-19T11:12:19;98639.50;;;16.96;88.37
18275;BME280;19470;49.322;7.218;2023-03-19T11:14:47;98637.00;;;16.80;88.99
18275;BME280;19470;49.322;7.218;2023-03-19T11:17:20;98633.75;;;16.20;96.74
18275;BME280;19470;49.322;7.218;2023-03-19T11:19:50;98640.09;;;16.29;94.60
18275;BME280;19470;49.322;7.218;2023-03-19T11:22:22;98642.66;;;16.74;96.02
18275;BME280;19470;49.322;7.218;2023-03-19T11:24:51;98638.81;;;16.51;95.02
18275;BME280;19470;49.322;7.218;2023-03-19T11:27:25;98638.56;;;16.52;98.12
18275;BME280;19470;49.322;7.218;2023-03-19T11:29:52;98656.72;;;16.21;99.79
18275;BME280;19470;49.322;7.218;2023-03-19T11:35:14;98657.47;;;16.27;100.00
18275;BME280;19470;49.322;7.218;2023-03-19T11:37:52;98660.47;;;16.20;100.00
18275;BME280;19470;49.322;7.218;2023-03-19T11:40:26;98652.03;;;16.42;100.00
18275;BME280;19470;49.322;7.218;2023-03-19T11:43:10;98652.63;;;17.16;95.89
18275;BME280;19470;49.322;7.218;2023-03-19T11:45:48;98658.88;;;16.82;99.84
18275;BME280;19470;49.322;7.218;2023-03-19T11:48:29;98653.50;;;17.11;100.00
18275;BME280;19470;49.322;7.218;2023-03-19T11:51:03;98641.09;;;16.97;99.73
18275;BME280;19470;49.322;7.218;2023-03-19T11:53:40;98648.69;;;17.14;99.24
18275;BME280;19470;49.322;7.218;2023-03-19T11:56:13;98638.69;;;16.95;99.19
18275;BME280;19470;49.322;7.218;2023-03-19T11:59:02;98624.91;;;18.58;89.67
18275;BME280;19470;49.322;7.218;2023-03-19T12:01:49;98631.88;;;17.94;91.09
18275;BME280;19470;49.322;7.218;2023-03-19T12:04:35;98632.03;;;17.59;97.88
18275;BME280;19470;49.322;7.218;2023-03-19T12:07:14;98624.84;;;17.98;94.67
18275;BME280;19470;49.322;7.218;2023-03-19T12:09:54;98621.25;;;17.46;98.80
18275;BME280;19470;49.322;7.218;2023-03-19T12:12:25;98623.56;;;17.52;100.00
18275;BME280;19470;49.322;7.218;2023-03-19T12:15:06;98619.72;;;17.40;100.00
18275;BME280;19470;49.322;7.218;2023-03-19T12:17:49;98617.78;;;17.64;100.00
18275;BME280;19470;49.322;7.218;2023-03-19T12:20:27;98613.06;;;18.78;92.62
18275;BME280;19470;49.322;7.218;2023-03-19T12:22:59;98612.06;;;18.08;93.52
18275;BME280;19470;49.322;7.218;2023-03-19T12:25:43;98607.22;;;19.17;86.18
18275;BME280;19470;49.322;7.218;2023-03-19T12:28:17;98613.06;;;18.78;88.48
18275;BME280;19470;49.322;7.218;2023-03-19T12:30:59;98612.00;;;18.46;89.29
18275;BME280;19470;49.322;7.218;2023-03-19T12:33:36;98603.44;;;18.44;90.90
18275;BME280;19470;49.322;7.218;2023-03-19T12:36:10;98601.94;;;18.38;91.89
18275;BME280;19470;49.322;7.218;2023-03-19T12:38:44;98605.94;;;19.01;88.19
18275;BME280;19470;49.322;7.218;2023-03-19T12:41:17;98608.09;;;18.71;88.96
18275;BME280;19470;49.322;7.218;2023-03-19T12:43:51;98610.03;;;18.19;90.13
18275;BME280;19470;49.322;7.218;2023-03-19T12:46:24;98595.78;;;18.70;87.50
18275;BME280;19470;49.322;7.218;2023-03-19T12:48:54;98596.56;;;18.98;84.03
18275;BME280;19470;49.322;7.218;2023-03-19T12:51:25;98590.63;;;19.15;83.51
18275;BME280;19470;49.322;7.218;2023-03-19T12:53:55;98590.31;;;19.03;84.47
18275;BME280;19470;49.322;7.218;2023-03-19T12:56:30;98591.94;;;18.57;87.79
18275;BME280;19470;49.322;7.218;2023-03-19T12:59:00;98588.22;;;18.72;87.80
18275;BME280;19470;49.322;7.218;2023-03-19T13:01:32;98582.84;;;20.22;79.52
18275;BME280;19470;49.322;7.218;2023-03-19T13:04:04;98590.00;;;19.04;81.83
18275;BME280;19470;49.322;7.218;2023-03-19T13:06:35;98580.97;;;19.00;83.30
18275;BME280;19470;49.322;7.218;2023-03-19T13:09:04;98583.00;;;19.45;79.03
18275;BME280;19470;49.322;7.218;2023-03-19T13:11:38;98584.47;;;18.73;82.26